createdAt,value
2022-09-12T00:02:15.059Z,7.78
2022-09-12T00:04:46.993Z,8.00
2022-09-12T00:07:20.368Z,8.25
2022-09-12T00:09:54.413Z,8.68
2022-09-12T00:12:26.391Z,8.65
2022-09-12T00:15:13.046Z,7.80
2022-09-12T00:17:41.632Z,11.13
2022-09-12T00:20:15.168Z,8.95
2022-09-12T00:22:46.976Z,8.68
2022-09-12T00:25:15.789Z,8.05
2022-09-12T00:27:44.270Z,7.80
2022-09-12T00:30:13.124Z,8.35
2022-09-12T00:32:41.826Z,8.30
2022-09-12T00:35:11.764Z,8.38
2022-09-12T00:37:40.221Z,8.30
2022-09-12T00:40:09.327Z,9.65
2022-09-12T00:42:43.175Z,10.15
2022-09-12T00:47:57.441Z,8.88
2022-09-12T00:50:31.213Z,8.68
2022-09-12T00:55:33.105Z,7.78
2022-09-12T00:58:04.892Z,9.07
2022-09-12T01:00:36.585Z,10.43
2022-09-12T01:03:10.102Z,8.73
2022-09-12T01:05:44.423Z,9.68
2022-09-12T01:08:13.336Z,10.63
2022-09-12T01:10:51.184Z,11.27
2022-09-12T01:13:22.494Z,8.85
2022-09-12T01:15:55.474Z,11.15
2022-09-12T01:18:32.346Z,9.90
2022-09-12T01:21:18.475Z,9.90
2022-09-12T01:23:58.320Z,10.32
2022-09-12T01:26:41.989Z,8.40
2022-09-12T01:29:28.042Z,10.80
2022-09-12T01:32:04.264Z,11.95
2022-09-12T01:34:39.494Z,8.93
2022-09-12T01:37:11.633Z,11.30
2022-09-12T01:39:42.335Z,9.77
2022-09-12T01:42:17.220Z,10.60
2022-09-12T01:44:51.297Z,8.50
2022-09-12T01:47:24.133Z,12.98
2022-09-12T01:49:57.474Z,11.60
2022-09-12T01:52:28.514Z,10.55
2022-09-12T01:54:58.995Z,11.30
2022-09-12T01:57:31.406Z,10.07
2022-09-12T02:00:06.485Z,11.40
2022-09-12T02:02:39.337Z,9.63
2022-09-12T02:05:12.438Z,9.80
2022-09-12T02:07:45.319Z,10.10
2022-09-12T02:10:16.796Z,12.30
2022-09-12T02:12:48.117Z,8.10
2022-09-12T02:15:21.189Z,10.15
2022-09-12T02:17:52.196Z,8.82
2022-09-12T02:20:44.379Z,9.18
2022-09-12T02:23:13.140Z,9.70
2022-09-12T02:25:45.963Z,9.90
2022-09-12T02:28:15.834Z,9.88
2022-09-12T02:30:47.500Z,9.52
2022-09-12T02:33:22.728Z,9.98
2022-09-12T02:35:53.774Z,9.38
2022-09-12T02:38:25.094Z,9.25
2022-09-12T02:40:53.766Z,10.15
2022-09-12T02:43:23.387Z,10.48
2022-09-12T02:45:52.923Z,11.00
2022-09-12T02:48:36.168Z,9.02
2022-09-12T02:51:08.413Z,8.43
2022-09-12T02:53:39.786Z,9.77
2022-09-12T02:56:10.323Z,8.50
2022-09-12T02:58:38.939Z,8.73
2022-09-12T03:01:13.670Z,9.07
2022-09-12T03:03:56.502Z,9.40
2022-09-12T03:06:32.666Z,10.52
2022-09-12T03:09:05.699Z,10.75
2022-09-12T03:11:56.009Z,11.90
2022-09-12T03:14:32.972Z,9.77
2022-09-12T03:17:10.102Z,10.00
2022-09-12T03:19:49.095Z,8.70
2022-09-12T03:22:21.964Z,12.15
2022-09-12T03:25:00.425Z,10.10
2022-09-12T03:27:34.129Z,10.18
2022-09-12T03:30:03.422Z,8.75
2022-09-12T03:32:45.996Z,10.13
2022-09-12T03:35:50.637Z,9.95
2022-09-12T03:38:13.013Z,10.38
2022-09-12T03:40:44.770Z,9.90
2022-09-12T03:43:13.400Z,9.68
2022-09-12T03:45:45.418Z,8.25
2022-09-12T03:48:14.332Z,10.63
2022-09-12T03:50:44.445Z,9.55
2022-09-12T03:53:17.019Z,9.43
2022-09-12T03:55:46.061Z,8.45
2022-09-12T03:58:16.132Z,11.65
2022-09-12T04:00:46.635Z,11.50
2022-09-12T04:03:15.609Z,9.07
2022-09-12T04:05:50.431Z,9.32
2022-09-12T04:08:20.022Z,10.15
2022-09-12T04:10:50.447Z,9.50
2022-09-12T04:13:21.032Z,11.57
2022-09-12T04:15:57.958Z,12.10
2022-09-12T04:18:27.071Z,14.27
2022-09-12T04:20:57.315Z,11.77
2022-09-12T04:23:26.514Z,11.00
2022-09-12T04:26:00.146Z,10.32
2022-09-12T04:28:35.947Z,10.27
2022-09-12T04:31:13.964Z,10.95
2022-09-12T04:33:43.296Z,10.15
2022-09-12T04:36:23.598Z,10.15
2022-09-12T04:38:54.773Z,11.05
2022-09-12T04:41:24.413Z,12.25
2022-09-12T04:43:54.549Z,9.57
2022-09-12T04:46:24.391Z,10.45
2022-09-12T04:48:57.197Z,10.15
2022-09-12T04:51:29.862Z,9.97
2022-09-12T04:54:01.422Z,10.05
2022-09-12T04:56:32.578Z,8.50
2022-09-12T04:59:07.259Z,11.05
2022-09-12T05:01:43.828Z,9.40
2022-09-12T05:04:18.329Z,10.27
2022-09-12T05:06:51.269Z,9.50
2022-09-12T05:09:28.193Z,8.93
2022-09-12T05:12:05.276Z,10.07
2022-09-12T05:14:37.712Z,9.80
2022-09-12T05:17:07.159Z,9.15
2022-09-12T05:19:39.466Z,10.35
2022-09-12T05:22:11.090Z,10.43
2022-09-12T05:24:45.279Z,11.45
2022-09-12T05:27:29.961Z,9.60
2022-09-12T05:29:59.765Z,9.35
2022-09-12T05:32:29.023Z,11.68
2022-09-12T05:34:58.927Z,11.65
2022-09-12T05:37:33.272Z,11.63
2022-09-12T05:40:17.956Z,11.77
2022-09-12T05:43:08.102Z,12.95
2022-09-12T05:49:05.752Z,11.95
2022-09-12T05:51:46.563Z,9.10
2022-09-12T05:54:35.722Z,11.30
2022-09-12T05:57:15.646Z,9.90
2022-09-12T05:59:55.386Z,10.43
2022-09-12T06:02:39.337Z,11.68
2022-09-12T06:05:14.740Z,9.02
2022-09-12T06:07:50.202Z,10.02
2022-09-12T06:10:27.150Z,9.73
2022-09-12T06:12:57.495Z,11.57
2022-09-12T06:15:27.993Z,10.95
2022-09-12T06:17:59.245Z,10.70
2022-09-12T06:20:32.198Z,9.27
2022-09-12T06:23:03.277Z,11.03
2022-09-12T06:25:45.692Z,9.40
2022-09-12T06:28:28.192Z,9.77
2022-09-12T06:31:09.060Z,9.60
2022-09-12T06:33:40.426Z,10.48
2022-09-12T06:36:25.055Z,9.52
2022-09-12T06:38:57.399Z,8.57
2022-09-12T06:41:30.045Z,9.38
2022-09-12T06:44:20.824Z,9.23
2022-09-12T06:46:49.822Z,11.45
2022-09-12T06:49:25.752Z,9.00
2022-09-12T06:51:54.507Z,9.27
2022-09-12T06:54:23.696Z,9.70
2022-09-12T06:56:56.189Z,10.77
2022-09-12T06:59:43.091Z,8.93
2022-09-12T07:02:17.115Z,7.78
2022-09-12T07:04:46.436Z,9.00
2022-09-12T07:07:15.154Z,8.50
2022-09-12T07:09:44.218Z,7.55
2022-09-12T07:12:14.679Z,9.85
2022-09-12T07:14:47.978Z,8.57
2022-09-12T07:17:19.618Z,9.18
2022-09-12T07:19:52.478Z,9.25
2022-09-12T07:22:21.487Z,9.07
2022-09-12T07:24:54.335Z,8.68
2022-09-12T07:27:25.151Z,9.07
2022-09-12T07:29:53.731Z,8.90
2022-09-12T07:32:24.234Z,7.72
2022-09-12T07:34:54.119Z,8.73
2022-09-12T07:37:24.791Z,8.30
2022-09-12T07:39:53.514Z,9.35
2022-09-12T07:42:26.553Z,10.57
2022-09-12T07:44:57.553Z,9.35
2022-09-12T07:47:30.223Z,10.35
2022-09-12T07:49:59.285Z,9.90
2022-09-12T07:52:27.876Z,9.63
2022-09-12T07:54:59.228Z,11.02
2022-09-12T07:57:30.222Z,10.77
2022-09-12T07:59:58.729Z,10.40
2022-09-12T08:02:36.054Z,13.02
2022-09-12T08:05:06.035Z,11.02
2022-09-12T08:07:38.737Z,11.18
2022-09-12T08:10:10.372Z,12.77
2022-09-12T08:12:42.099Z,12.43
2022-09-12T08:15:16.226Z,10.68
2022-09-12T08:17:51.791Z,10.43
2022-09-12T08:20:27.696Z,12.45
2022-09-12T08:22:56.868Z,12.32
2022-09-12T08:25:26.695Z,14.05
2022-09-12T08:27:55.670Z,12.40
2022-09-12T08:30:24.232Z,13.35
2022-09-12T08:32:57.948Z,12.60
2022-09-12T08:38:04.167Z,13.93
2022-09-12T08:40:33.074Z,13.07
2022-09-12T08:43:04.279Z,13.05
2022-09-12T08:45:35.131Z,13.55
2022-09-12T08:48:06.493Z,12.68
2022-09-12T08:50:35.357Z,13.75
2022-09-12T08:53:06.520Z,13.25
2022-09-12T08:55:40.201Z,11.98
2022-09-12T09:00:40.662Z,12.75
2022-09-12T09:03:28.353Z,14.57
2022-09-12T09:06:00.015Z,11.63
2022-09-12T09:08:44.119Z,12.25
2022-09-12T09:11:21.910Z,12.10
2022-09-12T09:14:19.137Z,14.02
2022-09-12T09:16:51.102Z,13.55
2022-09-12T09:19:23.823Z,14.15
2022-09-12T09:21:55.497Z,12.77
2022-09-12T09:24:27.848Z,12.05
2022-09-12T09:27:02.422Z,14.05
2022-09-12T09:29:34.671Z,14.88
2022-09-12T09:32:05.986Z,14.55
2022-09-12T09:34:37.812Z,12.15
2022-09-12T09:37:09.812Z,13.10
2022-09-12T09:39:58.016Z,13.55
2022-09-12T09:42:46.238Z,14.85
2022-09-12T09:45:17.022Z,13.55
2022-09-12T09:47:47.172Z,12.88
2022-09-12T09:50:18.468Z,15.20
2022-09-12T09:52:47.301Z,13.63
2022-09-12T09:55:18.663Z,13.75
2022-09-12T09:57:47.879Z,11.77
2022-09-12T10:00:27.225Z,12.90
2022-09-12T10:03:13.585Z,13.13
2022-09-12T10:05:48.974Z,13.68
2022-09-12T10:08:27.410Z,14.20
2022-09-12T10:11:01.804Z,12.30
2022-09-12T10:13:35.789Z,12.27
2022-09-12T10:16:09.526Z,12.30
2022-09-12T10:21:17.498Z,12.45
2022-09-12T10:23:46.421Z,13.30
2022-09-12T10:26:16.258Z,11.73
2022-09-12T10:28:48.111Z,12.32
2022-09-12T10:31:18.521Z,11.15
2022-09-12T10:33:52.712Z,12.48
2022-09-12T10:36:23.717Z,11.73
2022-09-12T10:38:55.830Z,12.98
2022-09-12T10:41:26.355Z,12.95
2022-09-12T10:44:08.105Z,11.95
2022-09-12T10:46:37.449Z,11.20
2022-09-12T10:49:23.597Z,11.68
2022-09-12T10:51:57.082Z,11.20
2022-09-12T10:54:35.260Z,10.88
2022-09-12T10:57:13.324Z,10.20
2022-09-12T11:00:03.193Z,11.93
2022-09-12T11:02:33.687Z,14.35
2022-09-12T11:05:08.779Z,11.02
2022-09-12T11:07:45.431Z,11.57
2022-09-12T11:10:38.077Z,11.35
2022-09-12T11:13:21.529Z,9.23
2022-09-12T11:15:59.291Z,8.75
2022-09-12T11:18:43.561Z,10.00
2022-09-12T11:21:20.375Z,9.35
2022-09-12T11:24:19.173Z,10.15
2022-09-12T11:26:54.124Z,9.80
2022-09-12T11:29:26.494Z,10.50
2022-09-12T11:32:04.622Z,9.02
2022-09-12T11:34:41.607Z,9.80
2022-09-12T11:37:27.941Z,9.07
2022-09-12T11:40:03.753Z,8.88
2022-09-12T11:42:42.994Z,8.10
2022-09-12T11:45:17.494Z,8.23
2022-09-12T11:47:53.886Z,8.55
2022-09-12T11:50:26.171Z,8.07
2022-09-12T11:52:54.993Z,6.78
2022-09-12T11:55:29.785Z,7.65
2022-09-12T11:58:00.097Z,8.13
2022-09-12T12:00:35.241Z,9.50
2022-09-12T12:03:07.229Z,8.32
2022-09-12T12:05:42.140Z,6.85
2022-09-12T12:08:11.180Z,7.85
2022-09-12T12:10:42.685Z,8.85
2022-09-12T12:13:18.690Z,7.10
2022-09-12T12:15:49.503Z,7.88
2022-09-12T12:18:24.431Z,6.82
2022-09-12T12:20:53.223Z,7.43
2022-09-12T12:23:26.120Z,6.63
2022-09-12T12:25:59.485Z,6.85
2022-09-12T12:31:03.350Z,6.13
2022-09-12T12:33:50.469Z,5.93
2022-09-12T12:36:38.318Z,6.53
2022-09-12T12:39:26.362Z,6.20
2022-09-12T12:41:57.215Z,5.63
2022-09-12T12:44:44.326Z,7.05
2022-09-12T12:47:26.249Z,6.25
2022-09-12T12:49:55.221Z,6.50
2022-09-12T12:52:25.126Z,6.47
2022-09-12T12:54:56.962Z,6.38
2022-09-12T12:57:30.077Z,5.25
2022-09-12T13:00:00.279Z,7.63
2022-09-12T13:02:32.471Z,6.43
2022-09-12T13:05:01.768Z,4.90
2022-09-12T13:07:34.216Z,6.63
2022-09-12T13:10:03.219Z,5.72
2022-09-12T13:12:34.091Z,5.88
2022-09-12T13:15:07.564Z,6.05
2022-09-12T13:17:41.813Z,6.45
2022-09-12T13:20:33.501Z,6.25
2022-09-12T13:23:02.214Z,7.15
2022-09-12T13:25:31.873Z,6.60
2022-09-12T13:28:07.697Z,6.85
2022-09-12T13:30:37.440Z,6.45
2022-09-12T13:33:20.242Z,5.88
2022-09-12T13:35:59.735Z,4.80
2022-09-12T13:38:32.276Z,5.95
2022-09-12T13:41:11.268Z,8.03
2022-09-12T13:43:41.885Z,6.47
2022-09-12T13:46:16.468Z,5.88
2022-09-12T13:48:47.061Z,9.88
2022-09-12T13:51:24.024Z,5.38
2022-09-12T13:53:53.228Z,5.63
2022-09-12T13:56:22.275Z,6.93
2022-09-12T13:58:59.286Z,6.00
2022-09-12T14:01:44.225Z,6.30
2022-09-12T14:04:35.987Z,6.78
2022-09-12T14:07:18.003Z,5.38
2022-09-12T14:09:51.672Z,5.50
2022-09-12T14:12:25.585Z,6.10
2022-09-12T14:14:54.436Z,6.00
2022-09-12T14:17:29.456Z,5.80
2022-09-12T14:20:15.625Z,5.05
2022-09-12T14:22:55.115Z,5.05
2022-09-12T14:25:37.055Z,5.20
2022-09-12T14:28:06.716Z,7.38
2022-09-12T14:30:37.315Z,4.75
2022-09-12T14:33:49.760Z,5.10
2022-09-12T14:36:24.129Z,5.68
2022-09-12T14:39:05.487Z,6.30
2022-09-12T14:41:49.726Z,6.25
2022-09-12T14:44:26.272Z,7.20
2022-09-12T14:46:57.364Z,6.28
2022-09-12T14:49:37.641Z,6.10
2022-09-12T14:52:24.627Z,5.10
2022-09-12T14:54:59.573Z,4.65
2022-09-12T14:57:36.482Z,5.50
2022-09-12T15:00:26.797Z,7.45
2022-09-12T15:03:06.663Z,5.68
2022-09-12T15:05:40.158Z,5.15
2022-09-12T15:08:18.912Z,5.78
2022-09-12T15:11:07.335Z,4.72
2022-09-12T15:13:44.288Z,6.60
2022-09-12T15:16:20.400Z,5.30
2022-09-12T15:18:57.312Z,6.07
2022-09-12T15:21:29.350Z,5.60
2022-09-12T15:24:06.539Z,4.95
2022-09-12T15:26:37.759Z,6.18
2022-09-12T15:29:34.920Z,4.80
2022-09-12T15:32:06.341Z,5.18
2022-09-12T15:34:37.713Z,6.20
2022-09-12T15:40:20.047Z,5.45
2022-09-12T15:43:09.015Z,4.85
2022-09-12T15:45:37.540Z,6.03
2022-09-12T15:48:08.701Z,6.53
2022-09-12T15:50:37.271Z,5.60
2022-09-12T15:53:14.552Z,5.47
2022-09-12T15:56:02.770Z,5.95
2022-09-12T15:58:33.364Z,5.10
2022-09-12T16:01:02.416Z,5.25
2022-09-12T16:03:33.216Z,5.55
2022-09-12T16:06:09.902Z,6.65
2022-09-12T16:08:49.276Z,5.80
2022-09-12T16:11:21.205Z,5.65
2022-09-12T16:13:51.483Z,5.60
2022-09-12T16:16:22.941Z,4.75
2022-09-12T16:18:51.816Z,5.90
2022-09-12T16:21:24.913Z,5.70
2022-09-12T16:23:55.595Z,5.07
2022-09-12T16:26:37.246Z,5.25
2022-09-12T16:30:06.038Z,5.63
2022-09-12T16:36:11.669Z,4.80
2022-09-12T16:38:49.424Z,8.02
2022-09-12T16:41:20.645Z,4.93
2022-09-12T16:43:51.143Z,6.72
2022-09-12T16:46:35.296Z,5.05
2022-09-12T16:49:03.944Z,5.45
2022-09-12T16:51:33.689Z,5.25
2022-09-12T16:54:02.058Z,5.03
2022-09-12T16:56:34.883Z,6.82
2022-09-12T16:59:09.675Z,6.40
2022-09-12T17:01:52.026Z,4.72
2022-09-12T17:04:23.431Z,4.93
2022-09-12T17:06:52.225Z,4.88
2022-09-12T17:09:21.495Z,5.90
2022-09-12T17:11:55.808Z,4.85
2022-09-12T17:14:25.908Z,7.18
2022-09-12T17:16:54.680Z,5.30
2022-09-12T17:19:32.523Z,6.65
2022-09-12T17:22:01.278Z,5.40
2022-09-12T17:24:36.227Z,6.00
2022-09-12T17:27:05.238Z,7.10
2022-09-12T17:29:41.273Z,4.57
2022-09-12T17:32:10.581Z,5.07
2022-09-12T17:34:46.217Z,7.57
2022-09-12T17:37:15.157Z,7.22
2022-09-12T17:39:45.677Z,6.47
2022-09-12T17:42:41.103Z,5.15
2022-09-12T17:45:16.390Z,5.47
2022-09-12T17:47:47.305Z,4.85
2022-09-12T17:50:31.710Z,5.20
2022-09-12T17:53:06.390Z,4.88
2022-09-12T17:55:36.559Z,5.55
2022-09-12T17:58:05.171Z,6.22
2022-09-12T18:00:54.486Z,6.65
2022-09-12T18:03:25.117Z,7.03
2022-09-12T18:05:54.981Z,6.18
2022-09-12T18:08:26.670Z,5.57
2022-09-12T18:10:58.259Z,5.57
2022-09-12T18:13:26.719Z,5.80
2022-09-12T18:16:03.998Z,8.15
2022-09-12T18:18:36.145Z,7.38
2022-09-12T18:21:05.128Z,7.22
2022-09-12T18:23:33.821Z,7.40
2022-09-12T18:26:08.527Z,6.80
2022-09-12T18:28:37.582Z,5.22
2022-09-12T18:31:11.804Z,5.72
2022-09-12T18:33:40.131Z,6.30
2022-09-12T18:36:12.269Z,6.22
2022-09-12T18:38:40.972Z,7.93
2022-09-12T18:41:10.413Z,6.55
2022-09-12T18:43:39.201Z,5.78
2022-09-12T18:46:15.922Z,7.50
2022-09-12T18:48:44.765Z,7.35
2022-09-12T18:51:15.361Z,7.50
2022-09-12T18:53:44.066Z,6.70
2022-09-12T18:56:13.747Z,6.63
2022-09-12T18:58:43.616Z,6.25
2022-09-12T19:01:14.881Z,6.72
2022-09-12T19:03:45.880Z,6.43
2022-09-12T19:06:17.680Z,6.28
2022-09-12T19:08:50.429Z,6.90
2022-09-12T19:11:19.834Z,7.22
2022-09-12T19:13:49.307Z,5.90
2022-09-12T19:16:21.937Z,6.68
2022-09-12T19:18:52.291Z,6.07
2022-09-12T19:21:22.810Z,6.60
2022-09-12T19:23:51.662Z,6.35
2022-09-12T19:26:20.665Z,9.40
2022-09-12T19:28:49.413Z,8.32
2022-09-12T19:31:20.779Z,7.55
2022-09-12T19:33:49.314Z,7.05
2022-09-12T19:36:41.299Z,6.65
2022-09-12T19:39:10.416Z,7.38
2022-09-12T19:41:43.643Z,7.00
2022-09-12T19:44:12.679Z,8.98
2022-09-12T19:46:42.911Z,7.63
2022-09-12T19:49:12.555Z,6.53
2022-09-12T19:51:44.274Z,7.10
2022-09-12T19:54:15.332Z,8.63
2022-09-12T19:56:43.718Z,8.20
2022-09-12T19:59:12.460Z,7.15
2022-09-12T20:01:42.695Z,8.18
2022-09-12T20:04:11.218Z,7.55
2022-09-12T20:06:39.899Z,7.93
2022-09-12T20:09:08.486Z,7.65
2022-09-12T20:11:38.297Z,8.57
2022-09-12T20:14:10.324Z,7.60
2022-09-12T20:16:38.741Z,8.30
2022-09-12T20:19:10.143Z,7.50
2022-09-12T20:21:39.243Z,8.10
2022-09-12T20:24:08.856Z,8.63
2022-09-12T20:26:37.645Z,8.60
2022-09-12T20:29:06.663Z,9.35
2022-09-12T20:31:38.056Z,7.35
2022-09-12T20:34:09.291Z,10.05
2022-09-12T20:36:39.464Z,8.07
2022-09-12T20:39:10.245Z,7.40
2022-09-12T20:41:54.849Z,7.60
2022-09-12T20:44:30.879Z,6.95
2022-09-12T20:47:04.135Z,6.30
2022-09-12T20:49:38.823Z,6.75
2022-09-12T20:52:08.380Z,7.38
2022-09-12T20:54:46.228Z,6.63
2022-09-12T20:57:16.416Z,8.48
2022-09-12T20:59:57.949Z,8.52
2022-09-12T21:02:32.382Z,7.88
2022-09-12T21:05:03.271Z,7.82
2022-09-12T21:07:32.403Z,8.80
2022-09-12T21:10:00.810Z,8.75
2022-09-12T21:12:29.616Z,8.77
2022-09-12T21:14:58.120Z,7.97
2022-09-12T21:17:27.688Z,8.93
2022-09-12T21:19:59.142Z,7.80
2022-09-12T21:22:29.474Z,7.40
2022-09-12T21:24:59.594Z,8.13
2022-09-12T21:27:28.072Z,8.18
2022-09-12T21:30:22.599Z,7.35
2022-09-12T21:32:51.049Z,8.00
2022-09-12T21:35:20.426Z,8.13
2022-09-12T21:37:52.934Z,8.65
2022-09-12T21:40:21.761Z,7.85
2022-09-12T21:42:50.911Z,7.60
2022-09-12T21:45:19.736Z,8.25
2022-09-12T21:47:48.909Z,7.03
2022-09-12T21:50:18.273Z,8.07
2022-09-12T21:52:46.687Z,7.63
2022-09-12T21:55:17.036Z,8.05
2022-09-12T21:57:46.772Z,9.52
2022-09-12T22:00:16.661Z,8.07
2022-09-12T22:02:45.699Z,9.13
2022-09-12T22:05:14.208Z,7.85
2022-09-12T22:07:43.295Z,6.95
2022-09-12T22:10:11.799Z,7.85
2022-09-12T22:12:46.164Z,7.50
2022-09-12T22:15:39.355Z,8.07
2022-09-12T22:18:04.038Z,8.48
2022-09-12T22:20:33.742Z,8.77
2022-09-12T22:23:24.340Z,8.70
2022-09-12T22:25:55.290Z,8.48
2022-09-12T22:28:25.465Z,9.93
2022-09-12T22:30:55.059Z,7.72
2022-09-12T22:33:24.120Z,8.07
2022-09-12T22:35:52.628Z,8.50
2022-09-12T22:38:22.428Z,8.32
2022-09-12T22:40:50.799Z,8.50
2022-09-12T22:43:19.259Z,8.00
2022-09-12T22:45:51.627Z,10.40
2022-09-12T22:48:20.475Z,8.95
2022-09-12T22:50:49.256Z,10.43
2022-09-12T22:53:18.273Z,9.20
2022-09-12T22:55:47.963Z,8.85
2022-09-12T22:58:16.523Z,10.07
2022-09-12T23:00:50.442Z,8.38
2022-09-12T23:03:19.565Z,9.27
2022-09-12T23:05:49.181Z,9.52
2022-09-12T23:08:18.530Z,8.65
2022-09-12T23:10:47.084Z,10.07
2022-09-12T23:13:15.500Z,9.90
2022-09-12T23:15:43.831Z,9.52
2022-09-12T23:18:13.630Z,8.18
2022-09-12T23:20:41.955Z,11.70
2022-09-12T23:23:10.464Z,8.77
2022-09-12T23:25:39.477Z,10.07
2022-09-12T23:28:08.434Z,8.57
2022-09-12T23:30:38.227Z,9.30
2022-09-12T23:33:07.056Z,8.60
2022-09-12T23:35:37.552Z,7.78
2022-09-12T23:38:12.622Z,9.43
2022-09-12T23:40:43.742Z,8.38
2022-09-12T23:43:12.287Z,8.85
2022-09-12T23:45:42.256Z,8.45
2022-09-12T23:48:10.708Z,8.77
2022-09-12T23:50:40.754Z,9.35
2022-09-12T23:53:10.426Z,9.68
2022-09-12T23:55:40.631Z,8.90
2022-09-12T23:58:09.231Z,8.63
